createdAt,value
2019-03-11T00:01:33.562Z,1.60
2019-03-11T00:04:01.732Z,1.43
2019-03-11T00:06:29.928Z,1.50
2019-03-11T00:08:58.071Z,1.90
2019-03-11T00:11:26.230Z,1.63
2019-03-11T00:13:54.380Z,1.37
2019-03-11T00:16:22.531Z,2.10
2019-03-11T00:18:50.702Z,2.30
2019-03-11T00:21:18.835Z,1.97
2019-03-11T00:23:46.968Z,1.40
2019-03-11T00:26:15.139Z,1.70
2019-03-11T00:28:43.274Z,1.90
2019-03-11T00:31:11.450Z,1.50
2019-03-11T00:33:39.680Z,1.60
2019-03-11T00:36:08.104Z,2.10
2019-03-11T00:38:36.251Z,2.23
2019-03-11T00:41:04.486Z,1.80
2019-03-11T00:43:32.624Z,1.23
2019-03-11T00:46:00.799Z,1.80
2019-03-11T00:48:28.970Z,1.33
2019-03-11T00:50:57.124Z,1.43
2019-03-11T00:53:25.260Z,1.50
2019-03-11T00:55:53.430Z,1.57
2019-03-11T00:58:21.597Z,1.40
2019-03-11T01:00:49.741Z,1.90
2019-03-11T01:03:17.940Z,2.00
2019-03-11T01:05:46.088Z,1.43
2019-03-11T01:08:14.222Z,1.70
2019-03-11T01:10:42.471Z,2.03
2019-03-11T01:13:10.625Z,1.73
2019-03-11T01:15:38.766Z,2.30
2019-03-11T01:18:06.941Z,1.80
2019-03-11T01:20:35.081Z,1.50
2019-03-11T01:23:03.221Z,1.63
2019-03-11T01:25:31.396Z,1.70
2019-03-11T01:27:59.576Z,2.63
2019-03-11T01:30:27.736Z,1.70
2019-03-11T01:32:55.938Z,1.60
2019-03-11T01:35:24.087Z,1.83
2019-03-11T01:37:52.275Z,1.67
2019-03-11T01:40:20.469Z,1.90
2019-03-11T01:42:48.634Z,1.70
2019-03-11T01:45:17.282Z,1.83
2019-03-11T01:47:45.483Z,1.97
2019-03-11T01:50:14.000Z,2.00
2019-03-11T01:52:42.159Z,1.93
2019-03-11T01:55:11.188Z,1.97
2019-03-11T01:57:39.371Z,1.97
2019-03-11T02:00:09.101Z,1.53
2019-03-11T02:02:37.273Z,1.80
2019-03-11T02:05:05.916Z,1.90
2019-03-11T02:07:34.061Z,2.70
2019-03-11T02:10:02.233Z,2.20
2019-03-11T02:12:30.393Z,1.87
2019-03-11T02:14:58.635Z,2.67
2019-03-11T02:17:26.809Z,2.20
2019-03-11T02:19:54.952Z,2.63
2019-03-11T02:22:23.100Z,2.60
2019-03-11T02:24:51.270Z,2.03
2019-03-11T02:27:19.417Z,1.83
2019-03-11T02:29:47.572Z,2.37
2019-03-11T02:32:15.765Z,2.20
2019-03-11T02:34:43.905Z,1.97
2019-03-11T02:37:12.120Z,1.73
2019-03-11T02:39:40.314Z,2.67
2019-03-11T02:42:08.479Z,1.90
2019-03-11T02:44:36.596Z,1.97
2019-03-11T02:47:04.756Z,1.60
2019-03-11T02:49:32.933Z,1.83
2019-03-11T02:52:01.131Z,1.93
2019-03-11T02:54:29.307Z,1.90
2019-03-11T02:56:57.528Z,1.87
2019-03-11T02:59:25.671Z,2.30
2019-03-11T03:02:04.485Z,1.63
2019-03-11T03:04:43.513Z,2.37
2019-03-11T03:07:11.679Z,1.47
2019-03-11T03:09:39.827Z,2.37
2019-03-11T03:12:07.978Z,1.70
2019-03-11T03:17:20.863Z,2.47
2019-03-11T03:19:49.616Z,2.17
2019-03-11T03:22:17.848Z,1.77
2019-03-11T03:24:46.001Z,1.97
2019-03-11T03:27:14.156Z,1.73
2019-03-11T03:29:42.412Z,2.40
2019-03-11T03:32:10.612Z,1.73
2019-03-11T03:34:38.747Z,2.60
2019-03-11T03:37:06.899Z,2.43
2019-03-11T03:39:35.057Z,2.23
2019-03-11T03:42:03.201Z,2.07
2019-03-11T03:44:31.350Z,2.40
2019-03-11T03:46:59.519Z,1.93
2019-03-11T03:49:27.695Z,2.00
2019-03-11T03:51:55.853Z,2.10
2019-03-11T03:54:24.027Z,2.30
2019-03-11T03:56:53.985Z,1.53
2019-03-11T03:59:21.949Z,1.73
2019-03-11T04:01:50.174Z,2.00
2019-03-11T04:04:18.316Z,2.43
2019-03-11T04:06:46.470Z,1.80
2019-03-11T04:09:14.635Z,1.80
2019-03-11T04:11:42.769Z,2.30
2019-03-11T04:14:10.916Z,2.53
2019-03-11T04:16:39.090Z,1.90
2019-03-11T04:19:07.225Z,1.37
2019-03-11T04:21:36.883Z,1.93
2019-03-11T04:24:05.265Z,1.97
2019-03-11T04:26:33.414Z,2.10
2019-03-11T04:29:01.562Z,2.70
2019-03-11T04:31:29.741Z,2.27
2019-03-11T04:33:57.938Z,1.80
2019-03-11T04:36:26.045Z,2.13
2019-03-11T04:38:54.210Z,3.87
2019-03-11T04:41:22.345Z,2.40
2019-03-11T04:43:50.484Z,1.90
2019-03-11T04:46:18.669Z,2.07
2019-03-11T04:48:46.807Z,2.07
2019-03-11T04:51:14.993Z,2.10
2019-03-11T04:53:43.157Z,2.20
2019-03-11T04:56:11.321Z,1.93
2019-03-11T04:58:39.468Z,2.40
2019-03-11T05:01:07.651Z,1.70
2019-03-11T05:03:36.913Z,2.10
2019-03-11T05:06:05.066Z,1.67
2019-03-11T05:08:33.272Z,2.40
2019-03-11T05:11:01.457Z,2.30
2019-03-11T05:13:29.624Z,1.93
2019-03-11T05:15:57.808Z,1.73
2019-03-11T05:18:25.957Z,1.93
2019-03-11T05:20:54.165Z,2.60
2019-03-11T05:23:22.283Z,2.10
2019-03-11T05:25:50.425Z,2.30
2019-03-11T05:28:18.605Z,2.23
2019-03-11T05:30:46.781Z,2.60
2019-03-11T05:33:15.309Z,2.20
2019-03-11T05:35:43.446Z,2.20
2019-03-11T05:38:11.625Z,2.20
2019-03-11T05:40:41.823Z,2.63
2019-03-11T05:43:09.974Z,2.57
2019-03-11T05:45:38.172Z,2.03
2019-03-11T05:48:06.324Z,2.60
2019-03-11T05:50:34.470Z,1.77
2019-03-11T05:53:02.665Z,2.37
2019-03-11T05:55:30.822Z,2.03
2019-03-11T05:57:58.969Z,2.10
2019-03-11T06:00:29.021Z,2.77
2019-03-11T06:02:57.173Z,2.50
2019-03-11T06:05:25.354Z,3.00
2019-03-11T06:07:53.521Z,2.17
2019-03-11T06:10:21.667Z,2.13
2019-03-11T06:12:49.820Z,2.07
2019-03-11T06:15:17.997Z,2.23
2019-03-11T06:17:46.284Z,1.80
2019-03-11T06:20:19.921Z,1.97
2019-03-11T06:22:48.109Z,3.20
2019-03-11T06:25:16.237Z,2.10
2019-03-11T06:27:44.393Z,2.47
2019-03-11T06:30:12.929Z,2.30
2019-03-11T06:32:41.075Z,1.93
2019-03-11T06:35:09.217Z,2.87
2019-03-11T06:37:37.404Z,2.70
2019-03-11T06:40:06.922Z,2.07
2019-03-11T06:42:35.145Z,2.30
2019-03-11T06:45:03.503Z,2.83
2019-03-11T06:47:31.645Z,1.40
2019-03-11T06:49:59.780Z,2.40
2019-03-11T06:52:27.964Z,2.30
2019-03-11T06:54:56.116Z,1.90
2019-03-11T06:57:24.265Z,2.47
2019-03-11T06:59:52.460Z,2.83
2019-03-11T07:02:20.572Z,2.90
2019-03-11T07:04:48.880Z,2.67
2019-03-11T07:07:17.055Z,2.70
2019-03-11T07:09:45.189Z,2.10
2019-03-11T07:12:13.791Z,2.07
2019-03-11T07:14:42.668Z,2.67
2019-03-11T07:17:10.935Z,2.57
2019-03-11T07:19:40.217Z,2.00
2019-03-11T07:22:08.417Z,2.10
2019-03-11T07:24:37.268Z,2.30
2019-03-11T07:27:05.411Z,2.30
2019-03-11T07:29:33.610Z,1.50
2019-03-11T07:32:01.785Z,2.40
2019-03-11T07:34:30.806Z,2.87
2019-03-11T07:36:59.068Z,2.97
2019-03-11T07:39:27.257Z,2.80
2019-03-11T07:41:55.403Z,2.23
2019-03-11T07:44:23.590Z,2.03
2019-03-11T07:46:51.731Z,2.27
2019-03-11T07:49:19.888Z,2.73
2019-03-11T07:51:48.061Z,1.83
2019-03-11T07:54:16.216Z,2.90
2019-03-11T07:56:44.384Z,2.83
2019-03-11T07:59:12.561Z,2.80
2019-03-11T08:01:40.700Z,3.27
2019-03-11T08:04:08.836Z,3.43
2019-03-11T08:06:38.245Z,2.23
2019-03-11T08:09:06.556Z,1.90
2019-03-11T08:11:34.693Z,2.50
2019-03-11T08:14:04.281Z,2.20
2019-03-11T08:16:32.424Z,2.50
2019-03-11T08:19:00.577Z,1.90
2019-03-11T08:21:28.754Z,2.80
2019-03-11T08:23:56.894Z,2.17
2019-03-11T08:26:25.040Z,2.40
2019-03-11T08:28:53.208Z,2.43
2019-03-11T08:31:21.353Z,2.70
2019-03-11T08:33:49.493Z,2.27
2019-03-11T08:36:17.674Z,2.20
2019-03-11T08:38:45.806Z,1.90
2019-03-11T08:41:13.952Z,2.13
2019-03-11T08:43:42.129Z,2.03
2019-03-11T08:46:10.297Z,2.33
2019-03-11T08:48:38.420Z,2.13
2019-03-11T08:51:06.585Z,3.00
2019-03-11T08:53:34.775Z,2.30
2019-03-11T08:56:02.913Z,2.10
2019-03-11T08:58:31.084Z,2.33
2019-03-11T09:00:59.237Z,2.30
2019-03-11T09:03:27.378Z,2.77
2019-03-11T09:05:55.561Z,2.83
2019-03-11T09:08:26.918Z,2.23
2019-03-11T09:10:55.060Z,2.07
2019-03-11T09:13:23.226Z,3.00
2019-03-11T09:15:52.896Z,2.27
2019-03-11T09:18:21.563Z,2.40
2019-03-11T09:20:50.049Z,2.20
2019-03-11T09:23:18.206Z,2.40
2019-03-11T09:25:46.331Z,2.30
2019-03-11T09:28:14.541Z,2.47
2019-03-11T09:30:42.711Z,2.23
2019-03-11T09:33:10.858Z,2.43
2019-03-11T09:35:39.040Z,2.30
2019-03-11T09:38:07.196Z,2.50
2019-03-11T09:40:35.341Z,3.17
2019-03-11T09:43:03.516Z,2.40
2019-03-11T09:45:31.659Z,2.10
2019-03-11T09:47:59.804Z,2.73
2019-03-11T09:50:28.916Z,2.57
2019-03-11T09:52:57.107Z,1.97
2019-03-11T09:55:26.590Z,2.50
2019-03-11T09:57:54.747Z,2.73
2019-03-11T10:00:23.761Z,2.90
2019-03-11T10:02:53.269Z,3.07
2019-03-11T10:05:21.798Z,2.60
2019-03-11T10:07:49.982Z,3.17
2019-03-11T10:10:19.705Z,2.77
2019-03-11T10:12:47.879Z,2.37
2019-03-11T10:15:17.685Z,2.10
2019-03-11T10:17:45.796Z,2.93
2019-03-11T10:20:15.597Z,3.03
2019-03-11T10:22:43.747Z,1.87
2019-03-11T10:25:12.160Z,2.97
2019-03-11T10:27:40.341Z,3.13
2019-03-11T10:30:21.065Z,2.93
2019-03-11T10:32:49.246Z,2.93
2019-03-11T10:35:33.362Z,2.23
2019-03-11T10:37:47.750Z,2.83
2019-03-11T10:40:17.562Z,2.90
2019-03-11T10:42:45.717Z,2.33
2019-03-11T10:45:14.624Z,2.03
2019-03-11T10:47:42.804Z,2.23
2019-03-11T10:50:11.929Z,2.70
2019-03-11T10:52:40.364Z,2.63
2019-03-11T10:55:10.017Z,2.80
2019-03-11T10:57:38.163Z,2.50
2019-03-11T11:00:08.012Z,3.17
2019-03-11T11:02:36.227Z,2.80
2019-03-11T11:05:05.135Z,2.87
2019-03-11T11:07:33.268Z,2.77
2019-03-11T11:10:01.532Z,3.00
2019-03-11T11:12:29.693Z,2.93
2019-03-11T11:14:57.832Z,2.80
2019-03-11T11:17:26.023Z,1.90
2019-03-11T11:20:02.942Z,3.10
2019-03-11T11:22:23.981Z,2.10
2019-03-11T11:24:52.168Z,2.30
2019-03-11T11:27:20.973Z,2.50
2019-03-11T11:29:49.125Z,3.03
2019-03-11T11:32:17.288Z,1.70
2019-03-11T11:34:47.056Z,2.70
2019-03-11T11:37:15.208Z,2.47
2019-03-11T11:39:43.380Z,2.97
2019-03-11T11:42:11.535Z,2.07
2019-03-11T11:44:40.540Z,2.23
2019-03-11T11:47:10.076Z,3.10
2019-03-11T11:49:38.246Z,2.87
2019-03-11T11:52:06.373Z,2.77
2019-03-11T11:54:34.557Z,2.40
2019-03-11T11:57:02.701Z,2.50
2019-03-11T11:59:30.853Z,2.50
2019-03-11T12:02:03.797Z,3.10
2019-03-11T12:04:28.813Z,3.63
2019-03-11T12:06:56.956Z,2.97
2019-03-11T12:09:25.120Z,3.13
2019-03-11T12:11:53.273Z,2.83
2019-03-11T12:14:21.432Z,2.47
2019-03-11T12:16:49.632Z,2.87
2019-03-11T12:19:17.772Z,3.47
2019-03-11T12:21:45.909Z,2.90
2019-03-11T12:24:14.098Z,3.13
2019-03-11T12:26:42.226Z,2.70
2019-03-11T12:29:10.379Z,3.10
2019-03-11T12:31:38.547Z,3.73
2019-03-11T12:34:06.689Z,2.83
2019-03-11T12:36:34.832Z,2.23
2019-03-11T12:39:04.464Z,3.00
2019-03-11T12:41:32.612Z,2.77
2019-03-11T12:44:00.757Z,2.40
2019-03-11T12:46:28.916Z,3.22
2019-03-11T12:48:57.060Z,2.97
2019-03-11T12:51:25.220Z,3.30
2019-03-11T12:53:53.414Z,2.43
2019-03-11T12:56:21.513Z,2.93
2019-03-11T12:58:49.664Z,3.10
2019-03-11T13:01:17.836Z,3.07
2019-03-11T13:03:45.996Z,3.03
2019-03-11T13:06:14.129Z,2.73
2019-03-11T13:08:42.293Z,2.53
2019-03-11T13:11:10.438Z,2.70
2019-03-11T13:13:38.580Z,2.27
2019-03-11T13:16:06.748Z,2.27
2019-03-11T13:18:36.524Z,2.57
2019-03-11T13:21:09.605Z,3.27
2019-03-11T13:23:37.740Z,2.70
2019-03-11T13:26:05.877Z,3.17
2019-03-11T13:28:34.064Z,2.83
2019-03-11T13:31:02.535Z,2.70
2019-03-11T13:33:30.651Z,3.23
2019-03-11T13:35:58.816Z,3.00
2019-03-11T13:38:26.969Z,3.27
2019-03-11T13:40:55.107Z,3.33
2019-03-11T13:43:23.284Z,3.20
2019-03-11T13:45:51.732Z,3.47
2019-03-11T13:48:19.868Z,2.47
2019-03-11T13:50:48.464Z,3.33
2019-03-11T13:53:16.571Z,2.83
2019-03-11T13:55:44.718Z,2.87
2019-03-11T13:58:12.890Z,2.83
2019-03-11T14:00:41.888Z,2.47
2019-03-11T14:03:10.036Z,2.47
2019-03-11T14:05:38.216Z,2.87
2019-03-11T14:08:06.362Z,2.73
2019-03-11T14:10:34.515Z,2.77
2019-03-11T14:13:02.696Z,2.47
2019-03-11T14:15:30.862Z,2.70
2019-03-11T14:17:59.129Z,3.00
2019-03-11T14:20:27.316Z,2.50
2019-03-11T14:22:55.484Z,2.47
2019-03-11T14:25:23.656Z,2.90
2019-03-11T14:27:51.850Z,3.20
2019-03-11T14:30:21.075Z,2.10
2019-03-11T14:32:49.346Z,2.37
2019-03-11T14:35:17.522Z,3.00
2019-03-11T14:37:45.796Z,3.03
2019-03-11T14:40:14.404Z,2.20
2019-03-11T14:42:42.951Z,1.87
2019-03-11T14:45:12.565Z,2.17
2019-03-11T14:47:40.738Z,2.50
2019-03-11T14:50:09.674Z,3.87
2019-03-11T14:52:37.819Z,2.67
2019-03-11T14:55:06.726Z,2.50
2019-03-11T14:57:34.972Z,2.70
2019-03-11T15:00:03.787Z,2.40
2019-03-11T15:02:33.736Z,1.90
2019-03-11T15:05:01.753Z,2.57
2019-03-11T15:07:29.915Z,2.63
2019-03-11T15:09:58.264Z,3.20
2019-03-11T15:12:26.449Z,2.70
2019-03-11T15:14:54.574Z,2.80
2019-03-11T15:17:22.716Z,2.10
2019-03-11T15:19:50.892Z,2.20
2019-03-11T15:22:19.024Z,1.70
2019-03-11T15:24:47.177Z,2.60
2019-03-11T15:27:17.113Z,2.57
2019-03-11T15:29:45.245Z,2.37
2019-03-11T15:32:15.187Z,2.43
2019-03-11T15:34:44.288Z,2.30
2019-03-11T15:37:15.749Z,2.20
2019-03-11T15:39:46.718Z,2.13
2019-03-11T15:42:14.865Z,2.63
2019-03-11T15:44:43.006Z,2.40
2019-03-11T15:47:11.187Z,2.33
2019-03-11T15:49:39.329Z,2.10
2019-03-11T15:52:07.502Z,3.00
2019-03-11T15:54:35.682Z,2.00
2019-03-11T15:57:03.827Z,2.67
2019-03-11T15:59:35.314Z,2.80
2019-03-11T16:02:07.792Z,2.10
2019-03-11T16:04:35.947Z,2.43
2019-03-11T16:07:04.365Z,2.30
2019-03-11T16:09:37.938Z,2.73
2019-03-11T16:12:09.357Z,2.10
2019-03-11T16:14:48.858Z,2.23
2019-03-11T16:17:13.149Z,2.20
2019-03-11T16:19:43.358Z,3.03
2019-03-11T16:22:22.455Z,2.80
2019-03-11T16:24:41.264Z,2.50
2019-03-11T16:27:09.452Z,2.90
2019-03-11T16:29:37.603Z,2.97
2019-03-11T16:32:05.750Z,2.27
2019-03-11T16:34:33.932Z,2.53
2019-03-11T16:37:03.369Z,2.20
2019-03-11T16:39:31.508Z,2.98
2019-03-11T16:41:59.688Z,3.13
2019-03-11T16:44:27.824Z,2.20
2019-03-11T16:46:55.973Z,2.67
2019-03-11T16:49:24.159Z,2.77
2019-03-11T16:51:52.306Z,2.57
2019-03-11T16:54:20.451Z,2.80
2019-03-11T16:56:48.621Z,2.40
2019-03-11T16:59:16.755Z,2.17
2019-03-11T17:01:44.893Z,2.67
2019-03-11T17:04:13.340Z,2.50
2019-03-11T17:06:41.485Z,2.00
2019-03-11T17:09:09.698Z,2.70
2019-03-11T17:11:38.729Z,2.63
2019-03-11T17:14:06.873Z,2.10
2019-03-11T17:16:35.008Z,1.97
2019-03-11T17:19:03.181Z,2.03
2019-03-11T17:21:31.351Z,1.90
2019-03-11T17:23:59.492Z,2.13
2019-03-11T17:26:27.664Z,2.30
2019-03-11T17:28:57.437Z,2.33
2019-03-11T17:31:26.465Z,1.40
2019-03-11T17:33:55.016Z,2.10
2019-03-11T17:36:23.521Z,1.97
2019-03-11T17:38:51.665Z,1.60
2019-03-11T17:41:19.852Z,1.90
2019-03-11T17:43:48.283Z,2.17
2019-03-11T17:46:16.411Z,1.67
2019-03-11T17:48:44.572Z,2.33
2019-03-11T17:51:12.717Z,1.93
2019-03-11T17:53:41.220Z,2.27
2019-03-11T17:56:09.394Z,2.20
2019-03-11T17:58:37.536Z,3.00
2019-03-11T18:01:07.385Z,3.07
2019-03-11T18:03:35.904Z,2.37
2019-03-11T18:06:11.671Z,2.10
2019-03-11T18:08:35.083Z,1.70
2019-03-11T18:11:03.645Z,1.60
2019-03-11T18:13:32.078Z,1.87
2019-03-11T18:16:00.370Z,1.97
2019-03-11T18:18:33.419Z,2.40
2019-03-11T18:21:02.539Z,1.63
2019-03-11T18:23:34.333Z,2.23
2019-03-11T18:26:02.462Z,2.60
2019-03-11T18:28:30.634Z,2.00
2019-03-11T18:30:58.776Z,1.70
2019-03-11T18:33:26.946Z,1.80
2019-03-11T18:35:55.377Z,2.13
2019-03-11T18:38:23.576Z,2.50
2019-03-11T18:40:54.180Z,1.90
2019-03-11T18:43:24.412Z,2.20
2019-03-11T18:45:54.583Z,2.43
2019-03-11T18:48:28.544Z,2.57
2019-03-11T18:51:10.024Z,2.52
2019-03-11T18:53:30.889Z,1.93
2019-03-11T18:55:59.040Z,2.50
2019-03-11T18:58:27.205Z,2.40
2019-03-11T19:00:55.332Z,2.40
2019-03-11T19:03:23.495Z,1.87
2019-03-11T19:05:51.682Z,1.67
2019-03-11T19:08:21.724Z,1.43
2019-03-11T19:10:52.927Z,2.00
2019-03-11T19:13:21.329Z,1.87
2019-03-11T19:15:49.474Z,1.67
2019-03-11T19:18:17.665Z,1.70
2019-03-11T19:20:47.112Z,1.53
2019-03-11T19:23:15.290Z,1.47
2019-03-11T19:25:44.273Z,1.50
2019-03-11T19:28:15.002Z,1.77
2019-03-11T19:31:00.399Z,2.07
2019-03-11T19:33:29.194Z,1.77
2019-03-11T19:35:59.080Z,1.93
2019-03-11T19:38:27.665Z,1.40
2019-03-11T19:41:01.202Z,1.70
2019-03-11T19:43:30.961Z,2.10
2019-03-11T19:45:59.144Z,2.73
2019-03-11T19:48:27.333Z,1.67
2019-03-11T19:50:55.441Z,2.10
2019-03-11T19:53:23.572Z,1.97
2019-03-11T19:55:52.039Z,2.63
2019-03-11T19:58:20.293Z,2.72
2019-03-11T20:00:51.003Z,2.20
2019-03-11T20:03:30.425Z,2.10
2019-03-11T20:05:56.684Z,2.67
2019-03-11T20:08:24.836Z,2.57
2019-03-11T20:10:53.065Z,2.53
2019-03-11T20:13:21.603Z,2.63
2019-03-11T20:15:49.737Z,3.77
2019-03-11T20:18:17.901Z,3.73
2019-03-11T20:20:46.049Z,3.87
2019-03-11T20:23:14.328Z,3.33
2019-03-11T20:25:42.512Z,2.80
2019-03-11T20:28:10.631Z,4.40
2019-03-11T20:30:38.818Z,4.03
2019-03-11T20:33:07.011Z,3.17
2019-03-11T20:35:35.133Z,4.07
2019-03-11T20:38:03.284Z,4.53
2019-03-11T20:40:31.628Z,3.67
2019-03-11T20:42:59.741Z,4.10
2019-03-11T20:45:27.933Z,3.77
2019-03-11T20:47:56.109Z,4.40
2019-03-11T20:50:24.301Z,6.30
2019-03-11T20:52:52.450Z,8.50
2019-03-11T20:55:20.611Z,5.03
2019-03-11T20:57:48.735Z,5.37
2019-03-11T21:00:18.587Z,4.00
2019-03-11T21:02:46.770Z,4.03
2019-03-11T21:05:16.333Z,3.67
2019-03-11T21:07:44.569Z,3.57
2019-03-11T21:10:13.736Z,2.53
2019-03-11T21:12:41.927Z,2.57
2019-03-11T21:15:14.100Z,2.60
2019-03-11T21:17:42.274Z,2.07
2019-03-11T21:20:13.758Z,2.80
2019-03-11T21:22:41.501Z,2.40
2019-03-11T21:25:11.306Z,2.07
2019-03-11T21:27:39.471Z,2.33
2019-03-11T21:30:09.418Z,2.43
2019-03-11T21:32:37.647Z,2.87
2019-03-11T21:35:06.806Z,2.53
2019-03-11T21:37:35.201Z,2.33
2019-03-11T21:40:04.326Z,2.77
2019-03-11T21:42:32.628Z,2.80
2019-03-11T21:45:00.809Z,2.23
2019-03-11T21:47:29.024Z,3.07
2019-03-11T21:49:57.362Z,2.77
2019-03-11T21:52:25.494Z,3.50
2019-03-11T21:54:53.760Z,2.33
2019-03-11T21:57:21.949Z,2.93
2019-03-11T21:59:50.141Z,2.37
2019-03-11T22:02:18.341Z,3.10
2019-03-11T22:04:46.507Z,2.83
2019-03-11T22:07:14.645Z,2.20
2019-03-11T22:09:42.839Z,2.70
2019-03-11T22:12:11.018Z,3.07
2019-03-11T22:14:39.136Z,3.00
2019-03-11T22:17:07.322Z,2.50
2019-03-11T22:19:35.456Z,2.93
2019-03-11T22:22:03.738Z,3.20
2019-03-11T22:24:32.048Z,3.20
2019-03-11T22:27:00.219Z,2.97
2019-03-11T22:29:28.357Z,3.00
2019-03-11T22:31:56.520Z,2.83
2019-03-11T22:34:24.674Z,3.20
2019-03-11T22:36:55.805Z,3.70
2019-03-11T22:39:22.651Z,2.83
2019-03-11T22:41:52.729Z,3.43
2019-03-11T22:44:20.903Z,3.53
2019-03-11T22:46:49.072Z,3.67
2019-03-11T22:49:17.256Z,2.93
2019-03-11T22:51:45.408Z,4.83
2019-03-11T22:54:13.577Z,3.53
2019-03-11T22:56:41.853Z,3.50
2019-03-11T22:59:10.002Z,3.57
2019-03-11T23:01:38.820Z,3.40
2019-03-11T23:04:07.000Z,3.70
2019-03-11T23:06:35.165Z,3.90
2019-03-11T23:09:04.715Z,4.20
2019-03-11T23:11:32.857Z,3.80
2019-03-11T23:14:00.996Z,3.17
2019-03-11T23:16:29.188Z,4.37
2019-03-11T23:18:57.347Z,3.27
2019-03-11T23:21:25.487Z,4.17
2019-03-11T23:23:53.798Z,3.07
2019-03-11T23:26:21.960Z,3.57
2019-03-11T23:28:50.700Z,3.07
2019-03-11T23:31:18.949Z,3.13
2019-03-11T23:33:47.100Z,3.03
2019-03-11T23:36:15.241Z,4.17
2019-03-11T23:38:43.437Z,3.50
2019-03-11T23:41:11.580Z,4.00
2019-03-11T23:43:39.740Z,2.80
2019-03-11T23:46:07.913Z,3.10
2019-03-11T23:48:36.060Z,3.40
2019-03-11T23:51:04.203Z,2.83
2019-03-11T23:53:32.432Z,3.10
2019-03-11T23:56:00.575Z,2.90
2019-03-11T23:58:28.753Z,3.03
